sensor_id;sensor_type;location;lat;lon;timestamp;pressure;altitude;pressure_sealevel;temperature;humidity
7768;BME280;3928;42.626;23.382;2023-03-16T00:00:25;93270.75;;;5.71;89.24
7768;BME280;3928;42.626;23.382;2023-03-16T00:02:52;93283.03;;;5.45;91.26
7768;BME280;3928;42.626;23.382;2023-03-16T00:05:19;93274.34;;;5.58;91.30
7768;BME280;3928;42.626;23.382;2023-03-16T00:07:47;93251.63;;;5.44;90.65
7768;BME280;3928;42.626;23.382;2023-03-16T00:10:14;93280.00;;;5.75;90.21
7768;BME280;3928;42.626;23.382;2023-03-16T00:12:44;93281.06;;;5.62;90.43
7768;BME280;3928;42.626;23.382;2023-03-16T00:15:14;93241.44;;;5.46;91.13
7768;BME280;3928;42.626;23.382;2023-03-16T00:17:43;93276.84;;;5.61;90.37
7768;BME280;3928;42.626;23.382;2023-03-16T00:20:12;93281.13;;;5.59;91.32
7768;BME280;3928;42.626;23.382;2023-03-16T00:22:39;93284.66;;;5.47;92.35
7768;BME280;3928;42.626;23.382;2023-03-16T00:25:09;93270.25;;;5.48;92.42
7768;BME280;3928;42.626;23.382;2023-03-16T00:27:37;93287.84;;;5.63;90.85
7768;BME280;3928;42.626;23.382;2023-03-16T00:30:05;93288.69;;;5.62;91.43
7768;BME280;3928;42.626;23.382;2023-03-16T00:32:34;93290.66;;;5.42;91.38
7768;BME280;3928;42.626;23.382;2023-03-16T00:35:02;93294.06;;;5.41;91.46
7768;BME280;3928;42.626;23.382;2023-03-16T00:37:30;93273.00;;;5.34;91.72
7768;BME280;3928;42.626;23.382;2023-03-16T00:39:57;93285.69;;;5.36;91.66
7768;BME280;3928;42.626;23.382;2023-03-16T00:42:28;93255.38;;;5.17;91.46
7768;BME280;3928;42.626;23.382;2023-03-16T00:44:55;93305.69;;;5.60;91.18
7768;BME280;3928;42.626;23.382;2023-03-16T00:47:23;93258.59;;;5.32;90.98
7768;BME280;3928;42.626;23.382;2023-03-16T00:49:51;93301.50;;;5.54;91.66
7768;BME280;3928;42.626;23.382;2023-03-16T00:52:18;93302.41;;;5.52;90.66
7768;BME280;3928;42.626;23.382;2023-03-16T00:54:45;93308.44;;;5.46;90.95
7768;BME280;3928;42.626;23.382;2023-03-16T00:57:14;93288.13;;;5.42;90.45
7768;BME280;3928;42.626;23.382;2023-03-16T00:59:44;93314.44;;;5.39;91.11
7768;BME280;3928;42.626;23.382;2023-03-16T01:02:12;93307.53;;;5.49;89.95
7768;BME280;3928;42.626;23.382;2023-03-16T01:04:39;93306.50;;;5.64;89.64
7768;BME280;3928;42.626;23.382;2023-03-16T01:07:07;93302.50;;;5.46;89.92
7768;BME280;3928;42.626;23.382;2023-03-16T01:09:35;93300.78;;;5.48;89.72
7768;BME280;3928;42.626;23.382;2023-03-16T01:12:02;93307.63;;;5.43;89.88
7768;BME280;3928;42.626;23.382;2023-03-16T01:14:31;93261.59;;;4.98;90.84
7768;BME280;3928;42.626;23.382;2023-03-16T01:17:00;93300.22;;;5.26;91.75
7768;BME280;3928;42.626;23.382;2023-03-16T01:19:27;93308.66;;;5.28;91.83
7768;BME280;3928;42.626;23.382;2023-03-16T01:21:54;93303.66;;;5.23;92.10
7768;BME280;3928;42.626;23.382;2023-03-16T01:24:21;93311.22;;;5.26;91.09
7768;BME280;3928;42.626;23.382;2023-03-16T01:26:48;93309.44;;;5.32;91.52
7768;BME280;3928;42.626;23.382;2023-03-16T01:29:15;93279.13;;;5.16;91.14
7768;BME280;3928;42.626;23.382;2023-03-16T01:31:42;93307.78;;;5.31;90.07
7768;BME280;3928;42.626;23.382;2023-03-16T01:34:10;93312.84;;;5.34;91.07
7768;BME280;3928;42.626;23.382;2023-03-16T01:36:41;93307.94;;;5.18;91.31
7768;BME280;3928;42.626;23.382;2023-03-16T01:39:08;93313.22;;;5.03;91.41
7768;BME280;3928;42.626;23.382;2023-03-16T01:41:35;93316.56;;;5.05;91.56
7768;BME280;3928;42.626;23.382;2023-03-16T01:44:02;93320.03;;;5.01;91.18
7768;BME280;3928;42.626;23.382;2023-03-16T01:46:29;93316.66;;;4.96;91.92
7768;BME280;3928;42.626;23.382;2023-03-16T01:49:03;93314.25;;;4.87;91.69
7768;BME280;3928;42.626;23.382;2023-03-16T01:51:36;93324.63;;;4.67;92.66
7768;BME280;3928;42.626;23.382;2023-03-16T01:54:11;93329.56;;;4.79;91.79
7768;BME280;3928;42.626;23.382;2023-03-16T01:56:42;93329.41;;;4.93;92.30
7768;BME280;3928;42.626;23.382;2023-03-16T01:59:14;93311.75;;;4.82;91.48
7768;BME280;3928;42.626;23.382;2023-03-16T02:01:42;93332.97;;;4.80;91.79
7768;BME280;3928;42.626;23.382;2023-03-16T02:07:04;93341.34;;;4.88;91.97
7768;BME280;3928;42.626;23.382;2023-03-16T02:09:34;93335.50;;;4.80;91.13
7768;BME280;3928;42.626;23.382;2023-03-16T02:12:03;93345.75;;;4.74;91.58
7768;BME280;3928;42.626;23.382;2023-03-16T02:14:30;93353.25;;;4.83;91.44
7768;BME280;3928;42.626;23.382;2023-03-16T02:16:57;93351.56;;;4.82;91.46
7768;BME280;3928;42.626;23.382;2023-03-16T02:19:34;93353.34;;;4.75;92.11
7768;BME280;3928;42.626;23.382;2023-03-16T02:22:06;93358.31;;;4.86;92.15
7768;BME280;3928;42.626;23.382;2023-03-16T02:24:35;93362.44;;;4.96;91.07
7768;BME280;3928;42.626;23.382;2023-03-16T02:27:04;93354.97;;;4.81;91.57
7768;BME280;3928;42.626;23.382;2023-03-16T02:30:02;93332.91;;;4.84;91.25
7768;BME280;3928;42.626;23.382;2023-03-16T02:32:31;93348.09;;;4.90;91.22
7768;BME280;3928;42.626;23.382;2023-03-16T02:34:58;93364.88;;;5.05;90.88
7768;BME280;3928;42.626;23.382;2023-03-16T02:37:27;93359.13;;;4.89;91.37
7768;BME280;3928;42.626;23.382;2023-03-16T02:39:53;93371.84;;;4.89;91.66
7768;BME280;3928;42.626;23.382;2023-03-16T02:42:22;93374.28;;;5.00;91.93
7768;BME280;3928;42.626;23.382;2023-03-16T02:44:53;93364.09;;;5.00;91.72
7768;BME280;3928;42.626;23.382;2023-03-16T02:47:27;93298.66;;;4.39;90.19
7768;BME280;3928;42.626;23.382;2023-03-16T02:49:55;93379.34;;;4.97;91.27
7768;BME280;3928;42.626;23.382;2023-03-16T02:52:22;93379.44;;;4.91;91.04
7768;BME280;3928;42.626;23.382;2023-03-16T02:54:49;93389.56;;;4.94;91.05
7768;BME280;3928;42.626;23.382;2023-03-16T02:57:16;93380.25;;;4.93;91.54
7768;BME280;3928;42.626;23.382;2023-03-16T02:59:43;93388.50;;;5.15;91.57
7768;BME280;3928;42.626;23.382;2023-03-16T03:02:10;93387.88;;;4.93;90.29
7768;BME280;3928;42.626;23.382;2023-03-16T03:04:38;93386.44;;;4.67;91.72
7768;BME280;3928;42.626;23.382;2023-03-16T03:07:05;93388.09;;;4.75;91.79
7768;BME280;3928;42.626;23.382;2023-03-16T03:09:31;93403.25;;;4.81;91.90
7768;BME280;3928;42.626;23.382;2023-03-16T03:11:59;93391.44;;;4.77;91.92
7768;BME280;3928;42.626;23.382;2023-03-16T03:14:25;93408.31;;;4.87;92.25
7768;BME280;3928;42.626;23.382;2023-03-16T03:16:53;93415.06;;;4.88;90.37
7768;BME280;3928;42.626;23.382;2023-03-16T03:19:21;93394.03;;;4.74;91.04
7768;BME280;3928;42.626;23.382;2023-03-16T03:21:52;93317.66;;;3.92;91.10
7768;BME280;3928;42.626;23.382;2023-03-16T03:24:21;93401.19;;;4.27;92.55
7768;BME280;3928;42.626;23.382;2023-03-16T03:26:49;93406.16;;;4.38;92.46
7768;BME280;3928;42.626;23.382;2023-03-16T03:29:17;93375.09;;;4.02;91.87
7768;BME280;3928;42.626;23.382;2023-03-16T03:31:45;93407.09;;;4.25;92.42
7768;BME280;3928;42.626;23.382;2023-03-16T03:34:13;93419.84;;;4.22;93.31
7768;BME280;3928;42.626;23.382;2023-03-16T03:36:39;93414.03;;;4.04;94.21
7768;BME280;3928;42.626;23.382;2023-03-16T03:39:08;93413.94;;;4.14;93.14
7768;BME280;3928;42.626;23.382;2023-03-16T03:41:35;93424.22;;;3.97;93.16
7768;BME280;3928;42.626;23.382;2023-03-16T03:44:03;93415.66;;;4.11;93.74
7768;BME280;3928;42.626;23.382;2023-03-16T03:46:30;93426.72;;;4.04;93.71
7768;BME280;3928;42.626;23.382;2023-03-16T03:48:57;93430.97;;;4.01;93.40
7768;BME280;3928;42.626;23.382;2023-03-16T03:51:28;93406.53;;;3.83;93.89
7768;BME280;3928;42.626;23.382;2023-03-16T03:53:55;93400.63;;;3.78;93.53
7768;BME280;3928;42.626;23.382;2023-03-16T03:56:24;93423.38;;;3.96;93.76
7768;BME280;3928;42.626;23.382;2023-03-16T03:58:51;93433.50;;;3.99;94.14
7768;BME280;3928;42.626;23.382;2023-03-16T04:01:18;93453.75;;;4.16;92.93
7768;BME280;3928;42.626;23.382;2023-03-16T04:03:45;93446.22;;;3.98;92.97
7768;BME280;3928;42.626;23.382;2023-03-16T04:06:12;93458.09;;;3.88;93.40
7768;BME280;3928;42.626;23.382;2023-03-16T04:08:39;93457.34;;;3.72;93.69
7768;BME280;3928;42.626;23.382;2023-03-16T04:11:05;93459.81;;;3.86;93.17
7768;BME280;3928;42.626;23.382;2023-03-16T04:13:33;93455.53;;;3.96;92.59
7768;BME280;3928;42.626;23.382;2023-03-16T04:16:00;93449.56;;;4.01;91.76
7768;BME280;3928;42.626;23.382;2023-03-16T04:18:28;93454.75;;;3.86;92.64
7768;BME280;3928;42.626;23.382;2023-03-16T04:21:03;93458.94;;;3.93;91.48
7768;BME280;3928;42.626;23.382;2023-03-16T04:23:31;93435.31;;;3.80;92.40
7768;BME280;3928;42.626;23.382;2023-03-16T04:25:59;93469.09;;;3.87;91.87
7768;BME280;3928;42.626;23.382;2023-03-16T04:28:26;93459.78;;;3.92;92.93
7768;BME280;3928;42.626;23.382;2023-03-16T04:30:54;93473.41;;;3.79;93.12
7768;BME280;3928;42.626;23.382;2023-03-16T04:33:21;93472.59;;;3.71;93.15
7768;BME280;3928;42.626;23.382;2023-03-16T04:35:48;93474.19;;;3.87;92.89
7768;BME280;3928;42.626;23.382;2023-03-16T04:38:16;93480.16;;;3.80;93.09
7768;BME280;3928;42.626;23.382;2023-03-16T04:40:43;93481.75;;;3.99;92.07
7768;BME280;3928;42.626;23.382;2023-03-16T04:43:10;93474.13;;;3.98;91.34
7768;BME280;3928;42.626;23.382;2023-03-16T04:45:37;93458.91;;;3.99;91.06
7768;BME280;3928;42.626;23.382;2023-03-16T04:48:07;93490.13;;;4.17;90.88
7768;BME280;3928;42.626;23.382;2023-03-16T04:50:35;93476.59;;;4.10;89.67
7768;BME280;3928;42.626;23.382;2023-03-16T04:53:01;93496.84;;;4.28;89.85
7768;BME280;3928;42.626;23.382;2023-03-16T04:55:28;93501.88;;;4.33;89.22
7768;BME280;3928;42.626;23.382;2023-03-16T04:57:55;93506.19;;;4.17;89.33
7768;BME280;3928;42.626;23.382;2023-03-16T05:00:23;93514.75;;;4.04;89.79
7768;BME280;3928;42.626;23.382;2023-03-16T05:02:50;93519.75;;;4.16;89.75
7768;BME280;3928;42.626;23.382;2023-03-16T05:05:19;93512.97;;;4.12;89.46
7768;BME280;3928;42.626;23.382;2023-03-16T05:07:47;93511.34;;;4.05;90.43
7768;BME280;3928;42.626;23.382;2023-03-16T05:10:15;93513.88;;;4.02;90.99
7768;BME280;3928;42.626;23.382;2023-03-16T05:12:44;93521.50;;;4.03;90.29
7768;BME280;3928;42.626;23.382;2023-03-16T05:15:11;93507.97;;;4.01;90.76
7768;BME280;3928;42.626;23.382;2023-03-16T05:17:38;93525.59;;;4.29;89.83
7768;BME280;3928;42.626;23.382;2023-03-16T05:20:06;93523.16;;;4.15;88.97
7768;BME280;3928;42.626;23.382;2023-03-16T05:22:41;93525.66;;;4.18;89.27
7768;BME280;3928;42.626;23.382;2023-03-16T05:25:09;93533.97;;;4.46;89.08
7768;BME280;3928;42.626;23.382;2023-03-16T05:27:39;93542.38;;;4.54;87.55
7768;BME280;3928;42.626;23.382;2023-03-16T05:30:08;93523.91;;;4.25;87.23
7768;BME280;3928;42.626;23.382;2023-03-16T05:32:35;93544.22;;;4.31;87.72
7768;BME280;3928;42.626;23.382;2023-03-16T05:35:02;93535.75;;;4.26;87.49
7768;BME280;3928;42.626;23.382;2023-03-16T05:37:31;93550.94;;;4.36;87.70
7768;BME280;3928;42.626;23.382;2023-03-16T05:40:00;93546.69;;;4.42;89.00
7768;BME280;3928;42.626;23.382;2023-03-16T05:42:39;93546.78;;;4.29;87.88
7768;BME280;3928;42.626;23.382;2023-03-16T05:45:07;93537.44;;;4.33;88.21
7768;BME280;3928;42.626;23.382;2023-03-16T05:47:34;93563.50;;;4.59;87.39
7768;BME280;3928;42.626;23.382;2023-03-16T05:50:02;93564.34;;;4.61;88.00
7768;BME280;3928;42.626;23.382;2023-03-16T05:52:28;93555.06;;;4.56;86.87
7768;BME280;3928;42.626;23.382;2023-03-16T05:54:55;93572.06;;;4.48;87.94
7768;BME280;3928;42.626;23.382;2023-03-16T05:57:23;93572.91;;;4.51;87.74
7768;BME280;3928;42.626;23.382;2023-03-16T05:59:50;93566.19;;;4.35;88.08
7768;BME280;3928;42.626;23.382;2023-03-16T06:02:17;93568.75;;;4.32;88.46
7768;BME280;3928;42.626;23.382;2023-03-16T06:04:44;93578.97;;;4.18;89.31
7768;BME280;3928;42.626;23.382;2023-03-16T06:07:11;93595.94;;;4.02;90.06
7768;BME280;3928;42.626;23.382;2023-03-16T06:09:38;93589.13;;;4.21;90.47
7768;BME280;3928;42.626;23.382;2023-03-16T06:12:05;93589.13;;;4.18;90.57
7768;BME280;3928;42.626;23.382;2023-03-16T06:14:33;93588.25;;;4.30;90.50
7768;BME280;3928;42.626;23.382;2023-03-16T06:17:00;93588.19;;;4.36;89.83
7768;BME280;3928;42.626;23.382;2023-03-16T06:19:27;93591.50;;;4.53;99.28
7768;BME280;3928;42.626;23.382;2023-03-16T06:21:54;93596.38;;;4.90;94.93
7768;BME280;3928;42.626;23.382;2023-03-16T06:24:21;93602.28;;;4.92;88.69
7768;BME280;3928;42.626;23.382;2023-03-16T06:26:47;93607.16;;;5.22;89.76
7768;BME280;3928;42.626;23.382;2023-03-16T06:29:14;93619.03;;;5.23;86.94
7768;BME280;3928;42.626;23.382;2023-03-16T06:31:42;93609.59;;;5.38;83.97
7768;BME280;3928;42.626;23.382;2023-03-16T06:34:09;93618.28;;;5.06;85.30
7768;BME280;3928;42.626;23.382;2023-03-16T06:36:36;93627.81;;;4.72;86.09
7768;BME280;3928;42.626;23.382;2023-03-16T06:39:04;93623.66;;;4.57;87.06
7768;BME280;3928;42.626;23.382;2023-03-16T06:41:31;93629.72;;;4.30;87.89
7768;BME280;3928;42.626;23.382;2023-03-16T06:43:59;93639.75;;;4.58;87.31
7768;BME280;3928;42.626;23.382;2023-03-16T06:46:25;93647.50;;;4.24;87.40
7768;BME280;3928;42.626;23.382;2023-03-16T06:48:54;93652.66;;;3.98;89.18
7768;BME280;3928;42.626;23.382;2023-03-16T06:51:21;93633.16;;;4.19;88.49
7768;BME280;3928;42.626;23.382;2023-03-16T06:53:47;93631.53;;;3.92;87.99
7768;BME280;3928;42.626;23.382;2023-03-16T06:56:14;93628.88;;;4.28;87.56
7768;BME280;3928;42.626;23.382;2023-03-16T06:59:00;93656.00;;;4.26;86.50
7768;BME280;3928;42.626;23.382;2023-03-16T07:01:27;93657.72;;;4.01;86.60
7768;BME280;3928;42.626;23.382;2023-03-16T07:03:55;93632.34;;;4.04;85.54
7768;BME280;3928;42.626;23.382;2023-03-16T07:06:22;93638.25;;;4.08;85.38
7768;BME280;3928;42.626;23.382;2023-03-16T07:08:49;93672.97;;;4.07;84.67
7768;BME280;3928;42.626;23.382;2023-03-16T07:11:16;93663.56;;;4.38;84.82
7768;BME280;3928;42.626;23.382;2023-03-16T07:13:45;93666.06;;;4.43;84.13
7768;BME280;3928;42.626;23.382;2023-03-16T07:16:12;93679.69;;;4.27;84.14
7768;BME280;3928;42.626;23.382;2023-03-16T07:18:39;93673.66;;;4.55;84.18
7768;BME280;3928;42.626;23.382;2023-03-16T07:21:10;93663.53;;;4.46;83.73
7768;BME280;3928;42.626;23.382;2023-03-16T07:23:37;93671.97;;;4.48;83.96
7768;BME280;3928;42.626;23.382;2023-03-16T07:26:05;93669.50;;;4.39;84.08
7768;BME280;3928;42.626;23.382;2023-03-16T07:28:33;93675.41;;;4.43;84.33
7768;BME280;3928;42.626;23.382;2023-03-16T07:31:00;93682.91;;;4.68;83.16
7768;BME280;3928;42.626;23.382;2023-03-16T07:33:27;93677.00;;;4.59;84.96
7768;BME280;3928;42.626;23.382;2023-03-16T07:35:53;93697.38;;;4.50;84.33
7768;BME280;3928;42.626;23.382;2023-03-16T07:38:22;93695.69;;;4.53;86.09
7768;BME280;3928;42.626;23.382;2023-03-16T07:40:49;93689.69;;;4.69;84.85
7768;BME280;3928;42.626;23.382;2023-03-16T07:43:16;93693.97;;;4.54;85.25
7768;BME280;3928;42.626;23.382;2023-03-16T07:45:46;93703.22;;;4.72;85.16
7768;BME280;3928;42.626;23.382;2023-03-16T07:48:14;93698.16;;;4.70;84.98
7768;BME280;3928;42.626;23.382;2023-03-16T07:50:41;93710.03;;;4.63;84.14
7768;BME280;3928;42.626;23.382;2023-03-16T07:53:08;93695.53;;;4.88;84.71
7768;BME280;3928;42.626;23.382;2023-03-16T07:55:36;93647.38;;;4.64;83.21
7768;BME280;3928;42.626;23.382;2023-03-16T07:58:03;93704.78;;;4.97;83.85
7768;BME280;3928;42.626;23.382;2023-03-16T08:00:30;93703.13;;;4.91;82.54
7768;BME280;3928;42.626;23.382;2023-03-16T08:02:57;93714.06;;;5.12;82.86
7768;BME280;3928;42.626;23.382;2023-03-16T08:05:24;93712.38;;;5.06;82.89
7768;BME280;3928;42.626;23.382;2023-03-16T08:07:51;93706.38;;;5.22;82.31
7768;BME280;3928;42.626;23.382;2023-03-16T08:10:19;93711.28;;;5.47;83.70
7768;BME280;3928;42.626;23.382;2023-03-16T08:12:47;93717.03;;;5.72;80.55
7768;BME280;3928;42.626;23.382;2023-03-16T08:15:14;93709.63;;;5.40;79.28
7768;BME280;3928;42.626;23.382;2023-03-16T08:17:41;93713.66;;;5.67;79.33
7768;BME280;3928;42.626;23.382;2023-03-16T08:20:09;93734.16;;;5.51;78.88
7768;BME280;3928;42.626;23.382;2023-03-16T08:22:39;93722.25;;;5.56;78.46
7768;BME280;3928;42.626;23.382;2023-03-16T08:25:08;93729.94;;;5.49;79.18
7768;BME280;3928;42.626;23.382;2023-03-16T08:27:35;93731.56;;;5.56;79.25
7768;BME280;3928;42.626;23.382;2023-03-16T08:30:05;93734.88;;;5.67;78.92
7768;BME280;3928;42.626;23.382;2023-03-16T08:32:36;93732.50;;;5.44;80.28
7768;BME280;3928;42.626;23.382;2023-03-16T08:35:06;93727.44;;;5.41;79.90
7768;BME280;3928;42.626;23.382;2023-03-16T08:37:34;93729.03;;;5.54;79.88
7768;BME280;3928;42.626;23.382;2023-03-16T08:40:01;93742.66;;;5.44;78.99
7768;BME280;3928;42.626;23.382;2023-03-16T08:42:30;93733.41;;;5.37;79.71
7768;BME280;3928;42.626;23.382;2023-03-16T08:44:57;93746.00;;;5.54;80.09
7768;BME280;3928;42.626;23.382;2023-03-16T08:47:26;93749.41;;;5.54;79.73
7768;BME280;3928;42.626;23.382;2023-03-16T08:49:54;93753.63;;;5.60;78.99
7768;BME280;3928;42.626;23.382;2023-03-16T08:52:21;93757.09;;;5.42;79.06
7768;BME280;3928;42.626;23.382;2023-03-16T08:54:48;93753.81;;;5.28;79.33
7768;BME280;3928;42.626;23.382;2023-03-16T08:57:15;93746.19;;;5.25;80.18
7768;BME280;3928;42.626;23.382;2023-03-16T08:59:42;93756.13;;;5.63;79.54
7768;BME280;3928;42.626;23.382;2023-03-16T09:02:11;93758.81;;;5.45;78.24
7768;BME280;3928;42.626;23.382;2023-03-16T09:04:40;93759.59;;;5.51;79.81
7768;BME280;3928;42.626;23.382;2023-03-16T09:07:09;93745.22;;;5.46;78.00
7768;BME280;3928;42.626;23.382;2023-03-16T09:09:40;93746.88;;;5.53;77.50
7768;BME280;3928;42.626;23.382;2023-03-16T09:12:07;93767.13;;;5.70;77.10
7768;BME280;3928;42.626;23.382;2023-03-16T09:14:37;93768.00;;;5.69;75.88
7768;BME280;3928;42.626;23.382;2023-03-16T09:17:04;93767.97;;;5.67;76.64
7768;BME280;3928;42.626;23.382;2023-03-16T09:19:32;93770.41;;;5.85;75.92
7768;BME280;3928;42.626;23.382;2023-03-16T09:22:00;93768.69;;;5.91;74.44
7768;BME280;3928;42.626;23.382;2023-03-16T09:24:27;93762.97;;;5.55;75.00
7768;BME280;3928;42.626;23.382;2023-03-16T09:26:53;93754.44;;;5.62;75.28
7768;BME280;3928;42.626;23.382;2023-03-16T09:29:20;93779.78;;;5.79;75.73
7768;BME280;3928;42.626;23.382;2023-03-16T09:31:48;93773.06;;;5.72;73.28
7768;BME280;3928;42.626;23.382;2023-03-16T09:34:15;93778.97;;;5.72;73.16
7768;BME280;3928;42.626;23.382;2023-03-16T09:36:41;93772.19;;;5.71;73.49
7768;BME280;3928;42.626;23.382;2023-03-16T09:39:12;93777.19;;;5.93;74.78
7768;BME280;3928;42.626;23.382;2023-03-16T09:41:45;93778.75;;;6.09;74.46
7768;BME280;3928;42.626;23.382;2023-03-16T09:44:26;93784.81;;;5.94;73.54
7768;BME280;3928;42.626;23.382;2023-03-16T09:46:58;93785.72;;;5.79;73.33
7768;BME280;3928;42.626;23.382;2023-03-16T09:49:30;93794.34;;;5.54;74.34
7768;BME280;3928;42.626;23.382;2023-03-16T09:52:07;93788.28;;;5.75;73.89
7768;BME280;3928;42.626;23.382;2023-03-16T09:54:45;93787.44;;;5.74;78.81
7768;BME280;3928;42.626;23.382;2023-03-16T09:57:24;93796.66;;;5.98;74.70
7768;BME280;3928;42.626;23.382;2023-03-16T09:59:52;93793.22;;;6.02;73.27
7768;BME280;3928;42.626;23.382;2023-03-16T10:02:40;93788.25;;;5.84;75.02
7768;BME280;3928;42.626;23.382;2023-03-16T10:05:12;93777.16;;;5.96;75.43
7768;BME280;3928;42.626;23.382;2023-03-16T10:07:46;93796.50;;;6.18;75.24
7768;BME280;3928;42.626;23.382;2023-03-16T10:10:33;93795.78;;;6.04;77.80
7768;BME280;3928;42.626;23.382;2023-03-16T10:13:10;93787.25;;;6.08;76.49
7768;BME280;3928;42.626;23.382;2023-03-16T10:15:41;93788.75;;;6.27;76.32
7768;BME280;3928;42.626;23.382;2023-03-16T10:18:11;93796.31;;;6.39;76.43
7768;BME280;3928;42.626;23.382;2023-03-16T10:20:39;93788.56;;;6.52;76.66
7768;BME280;3928;42.626;23.382;2023-03-16T10:23:14;93796.41;;;6.29;75.38
7768;BME280;3928;42.626;23.382;2023-03-16T10:25:46;93797.16;;;6.38;74.46
7768;BME280;3928;42.626;23.382;2023-03-16T10:28:15;93792.88;;;6.43;74.94
7768;BME280;3928;42.626;23.382;2023-03-16T10:30:43;93787.94;;;6.24;74.28
7768;BME280;3928;42.626;23.382;2023-03-16T10:33:17;93797.47;;;6.05;74.11
7768;BME280;3928;42.626;23.382;2023-03-16T10:35:47;93808.44;;;6.10;74.12
7768;BME280;3928;42.626;23.382;2023-03-16T10:38:27;93802.63;;;5.96;75.10
7768;BME280;3928;42.626;23.382;2023-03-16T10:40:56;93799.22;;;5.97;75.45
7768;BME280;3928;42.626;23.382;2023-03-16T10:43:23;93799.94;;;6.12;75.61
7768;BME280;3928;42.626;23.382;2023-03-16T10:45:50;93791.47;;;6.09;77.88
7768;BME280;3928;42.626;23.382;2023-03-16T10:48:20;93802.22;;;6.44;77.29
7768;BME280;3928;42.626;23.382;2023-03-16T10:50:49;93798.75;;;6.52;74.45
7768;BME280;3928;42.626;23.382;2023-03-16T10:53:20;93797.16;;;6.38;73.41
7768;BME280;3928;42.626;23.382;2023-03-16T10:55:55;93797.00;;;6.57;73.18
7768;BME280;3928;42.626;23.382;2023-03-16T10:58:25;93790.06;;;6.71;73.16
7768;BME280;3928;42.626;23.382;2023-03-16T11:00:55;93796.88;;;6.69;72.34
7768;BME280;3928;42.626;23.382;2023-03-16T11:03:26;93789.38;;;6.55;71.94
7768;BME280;3928;42.626;23.382;2023-03-16T11:05:58;93801.38;;;6.44;73.00
7768;BME280;3928;42.626;23.382;2023-03-16T11:08:29;93805.66;;;6.39;72.95
7768;BME280;3928;42.626;23.382;2023-03-16T11:10:58;93799.59;;;6.54;72.42
7768;BME280;3928;42.626;23.382;2023-03-16T11:13:32;93791.31;;;6.29;71.26
7768;BME280;3928;42.626;23.382;2023-03-16T11:16:02;93802.13;;;6.51;70.73
7768;BME280;3928;42.626;23.382;2023-03-16T11:18:34;93796.94;;;6.64;70.69
7768;BME280;3928;42.626;23.382;2023-03-16T11:21:07;93803.84;;;6.52;70.30
7768;BME280;3928;42.626;23.382;2023-03-16T11:23:41;93794.50;;;6.54;69.84
7768;BME280;3928;42.626;23.382;2023-03-16T11:26:19;93794.53;;;6.48;68.32
7768;BME280;3928;42.626;23.382;2023-03-16T11:28:52;93798.88;;;6.39;68.80
7768;BME280;3928;42.626;23.382;2023-03-16T11:31:32;93802.13;;;6.51;68.76
7768;BME280;3928;42.626;23.382;2023-03-16T11:34:11;93779.50;;;6.19;68.84
7768;BME280;3928;42.626;23.382;2023-03-16T11:36:44;93796.41;;;6.26;70.17
7768;BME280;3928;42.626;23.382;2023-03-16T11:39:22;93805.66;;;6.37;69.33
7768;BME280;3928;42.626;23.382;2023-03-16T11:41:58;93813.28;;;6.39;69.64
7768;BME280;3928;42.626;23.382;2023-03-16T11:44:32;93799.88;;;6.20;70.37
7768;BME280;3928;42.626;23.382;2023-03-16T11:47:11;93804.06;;;6.24;69.62
7768;BME280;3928;42.626;23.382;2023-03-16T11:49:50;93805.94;;;6.05;69.09
7768;BME280;3928;42.626;23.382;2023-03-16T11:52:29;93800.81;;;6.10;69.60
7768;BME280;3928;42.626;23.382;2023-03-16T11:55:07;93807.66;;;6.02;70.81
7768;BME280;3928;42.626;23.382;2023-03-16T11:57:45;93778.97;;;5.75;70.22
7768;BME280;3928;42.626;23.382;2023-03-16T12:00:29;93808.59;;;5.85;71.17
7768;BME280;3928;42.626;23.382;2023-03-16T12:03:14;93805.19;;;5.91;72.10
7768;BME280;3928;42.626;23.382;2023-03-16T12:05:58;93807.75;;;5.83;72.31
7768;BME280;3928;42.626;23.382;2023-03-16T12:09:01;93811.13;;;5.92;71.63
7768;BME280;3928;42.626;23.382;2023-03-16T12:11:34;93790.78;;;5.79;72.35
7768;BME280;3928;42.626;23.382;2023-03-16T12:14:11;93797.69;;;5.64;73.14
7768;BME280;3928;42.626;23.382;2023-03-16T12:16:45;93817.06;;;5.86;71.63
7768;BME280;3928;42.626;23.382;2023-03-16T12:19:17;93811.06;;;5.99;72.95
7768;BME280;3928;42.626;23.382;2023-03-16T12:21:50;93827.19;;;6.01;71.47
7768;BME280;3928;42.626;23.382;2023-03-16T12:24:21;93821.41;;;5.73;72.06
7768;BME280;3928;42.626;23.382;2023-03-16T12:26:52;93825.75;;;5.57;73.28
7768;BME280;3928;42.626;23.382;2023-03-16T12:29:27;93819.75;;;5.69;74.44
7768;BME280;3928;42.626;23.382;2023-03-16T12:32:03;93828.22;;;5.71;73.03
7768;BME280;3928;42.626;23.382;2023-03-16T12:34:38;93831.50;;;5.87;72.94
7768;BME280;3928;42.626;23.382;2023-03-16T12:37:21;93819.59;;;5.97;73.18
7768;BME280;3928;42.626;23.382;2023-03-16T12:40:00;93825.50;;;5.99;72.67
7768;BME280;3928;42.626;23.382;2023-03-16T12:42:41;93835.63;;;6.09;72.53
7768;BME280;3928;42.626;23.382;2023-03-16T12:45:17;93841.56;;;6.10;72.11
7768;BME280;3928;42.626;23.382;2023-03-16T12:47:58;93838.38;;;5.68;73.27
7768;BME280;3928;42.626;23.382;2023-03-16T12:50:27;93836.59;;;5.85;71.97
7768;BME280;3928;42.626;23.382;2023-03-16T12:52:54;93843.47;;;5.71;71.96
7768;BME280;3928;42.626;23.382;2023-03-16T12:55:24;93836.69;;;5.67;73.91
7768;BME280;3928;42.626;23.382;2023-03-16T12:57:58;93838.41;;;5.65;74.58
7768;BME280;3928;42.626;23.382;2023-03-16T13:00:32;93831.63;;;5.70;75.45
7768;BME280;3928;42.626;23.382;2023-03-16T13:03:02;93841.72;;;5.84;75.46
7768;BME280;3928;42.626;23.382;2023-03-16T13:05:31;93823.13;;;5.65;75.67
7768;BME280;3928;42.626;23.382;2023-03-16T13:08:07;93828.34;;;5.45;77.71
7768;BME280;3928;42.626;23.382;2023-03-16T13:10:36;93850.31;;;5.62;79.57
7768;BME280;3928;42.626;23.382;2023-03-16T13:13:08;93852.97;;;5.45;79.14
7768;BME280;3928;42.626;23.382;2023-03-16T13:15:36;93864.81;;;5.44;80.16
7768;BME280;3928;42.626;23.382;2023-03-16T13:18:20;93847.03;;;5.38;81.08
7768;BME280;3928;42.626;23.382;2023-03-16T13:20:55;93866.44;;;5.62;80.37
7768;BME280;3928;42.626;23.382;2023-03-16T13:23:25;93866.44;;;5.64;79.99
7768;BME280;3928;42.626;23.382;2023-03-16T13:26:09;93875.69;;;5.77;80.58
7768;BME280;3928;42.626;23.382;2023-03-16T13:28:39;93870.59;;;5.78;80.38
7768;BME280;3928;42.626;23.382;2023-03-16T13:31:19;93871.41;;;5.83;81.66
7768;BME280;3928;42.626;23.382;2023-03-16T13:33:52;93877.38;;;5.76;81.44
7768;BME280;3928;42.626;23.382;2023-03-16T13:36:20;93881.56;;;5.91;80.93
7768;BME280;3928;42.626;23.382;2023-03-16T13:39:03;93876.44;;;6.00;80.66